TED STEVENS ANCHORAGE INTL

PANC (ANC)
Anchorage, Alaska
Towered

Vatsim Metar:
PANC 251653Z 35005KT 10SM FEW075 SCT100 BKN200 03/M06 A3008 RMK AO2 SLP187 T00281056